Volcan De Teneguia — ECLA — position and weather

sailwx.info

Track history (hours):
 
Tides and Currents Weather Stations Pressure Air Temp Water Temp Dewpoint Dewpoint Depression Visibility Wind Speed Wind Dir Waves Ship Positions

Volcan De Teneguia

Last reported at 2016-Dec-05 03:32 UTC. Time now 2016-Dec-06 12:13 UTC.
Position N 36°11' W 006°52'.

Length 145 m; draft 5.4 m.

Type: Cargo ship. MMSI: 225317000.

Date/timePositionNaut miles runAvg speedWind from/ knotsBaromVisibWave heightAir tempDewpointWater temp
2016-Dec-05 03:32N 36°11' W 006°52'59413.4
2016-Dec-03 07:05N 29°14' W 015°15'813.3
2016-Dec-03 06:28N 29°09' W 015°22'1213.6
2016-Dec-03 05:34N 29°00' W 015°32'1413.9
2016-Dec-03 04:33N 28°50' W 015°43'1413.9
2016-Dec-03 03:33N 28°41' W 015°54'1414.2
2016-Dec-03 02:32N 28°31' W 016°06'7 0.9
2016-Dec-02 19:24N 28°28' W 016°13'910.1
2016-Dec-02 18:33N 28°25' W 016°04'1413.5
2016-Dec-02 17:33N 28°21' W 015°49'1313.5
2016-Dec-02 16:33N 28°16' W 015°35'1312.8
2016-Dec-02 15:33N 28°08' W 015°23'2 1.6
2016-Dec-02 14:33N 28°09' W 015°25'0 0.0
2016-Dec-02 13:24N 28°09' W 015°25'0 0.0
2016-Dec-02 12:24N 28°09' W 015°25'0 0.0
2016-Dec-02 11:27N 28°09' W 015°25'0 0.0
2016-Dec-02 10:27N 28°09' W 015°25'0 0.0
2016-Dec-02 09:30N 28°09' W 015°25'0 0.0
2016-Dec-02 08:30N 28°09' W 015°25'2 2.1
2016-Dec-02 07:34N 28°07' W 015°23'5 5.4
2016-Dec-02 06:33N 28°13' W 015°24'1514.8
2016-Dec-02 05:33N 28°18' W 015°40'1414.4
2016-Dec-02 04:33N 28°23' W 015°55'17 2.8
2016-Dec-01 22:25N 28°29' W 016°14'2512.2
2016-Dec-01 20:23N 28°44' W 015°51'1315.0
2016-Dec-01 19:32N 28°53' W 015°40'1514.9
2016-Dec-01 18:34N 29°03' W 015°29'1515.1
2016-Dec-01 17:33N 29°14' W 015°16'1514.9
2016-Dec-01 16:33N 29°24' W 015°04'1514.9
2016-Dec-01 15:33N 29°34' W 014°52'1814.9
2016-Dec-01 14:20N 29°47' W 014°36'  
2016-Nov-26 03:33N 29°02' W 015°29'1312.8
2016-Nov-26 02:34N 28°53' W 015°39'1312.7
2016-Nov-26 01:33N 28°44' W 015°50'1312.7
2016-Nov-26 00:33N 28°36' W 016°00'13 3.1
2016-Nov-25 20:16N 28°29' W 016°14'3 1.8
2016-Nov-25 18:24N 28°27' W 016°11'1214.2
2016-Nov-25 17:33N 28°23' W 015°58'1413.9
2016-Nov-25 16:33N 28°19' W 015°43'1313.1
2016-Nov-25 15:33N 28°14' W 015°29'7 6.3
2016-Nov-25 14:31N 28°09' W 015°25'0 0.0
2016-Nov-25 13:31N 28°09' W 015°25'0 0.0
2016-Nov-25 12:31N 28°09' W 015°25'0 0.0
2016-Nov-25 11:31N 28°09' W 015°25'0 0.0
2016-Nov-25 10:31N 28°09' W 015°25'0 0.0
2016-Nov-25 09:31N 28°09' W 015°25'0 0.0
2016-Nov-25 08:31N 28°09' W 015°25'1 0.6
2016-Nov-25 07:33N 28°08' W 015°25'7 7.1
2016-Nov-25 06:33N 28°14' W 015°29'1514.8
2016-Nov-25 05:33N 28°19' W 015°44'1514.5
2016-Nov-25 04:33N 28°24' W 016°00'  
Track history (hours):
 
Tides and Currents Weather Stations Pressure Air Temp Water Temp Dewpoint Dewpoint Depression Visibility Wind Speed Wind Dir Waves Ship Positions

Volcan De Teneguia

Last reported at 2016-Dec-05 03:32 UTC. Time now 2016-Dec-06 12:13 UTC.
Position N 36°11' W 006°52'.

Length 145 m; draft 5.4 m.

Type: Cargo ship. MMSI: 225317000.

Date/timePositionNaut miles runAvg speedWind from/ knotsBaromVisibWave heightAir tempDewpointWater temp
2016-Dec-05 03:32N 36°11' W 006°52'59413.4
2016-Dec-03 07:05N 29°14' W 015°15'813.3
2016-Dec-03 06:28N 29°09' W 015°22'1213.6
2016-Dec-03 05:34N 29°00' W 015°32'1413.9
2016-Dec-03 04:33N 28°50' W 015°43'1413.9
2016-Dec-03 03:33N 28°41' W 015°54'1414.2
2016-Dec-03 02:32N 28°31' W 016°06'7 0.9
2016-Dec-02 19:24N 28°28' W 016°13'910.1
2016-Dec-02 18:33N 28°25' W 016°04'1413.5
2016-Dec-02 17:33N 28°21' W 015°49'1313.5
2016-Dec-02 16:33N 28°16' W 015°35'1312.8
2016-Dec-02 15:33N 28°08' W 015°23'2 1.6
2016-Dec-02 14:33N 28°09' W 015°25'0 0.0
2016-Dec-02 13:24N 28°09' W 015°25'0 0.0
2016-Dec-02 12:24N 28°09' W 015°25'0 0.0
2016-Dec-02 11:27N 28°09' W 015°25'0 0.0
2016-Dec-02 10:27N 28°09' W 015°25'0 0.0
2016-Dec-02 09:30N 28°09' W 015°25'0 0.0
2016-Dec-02 08:30N 28°09' W 015°25'2 2.1
2016-Dec-02 07:34N 28°07' W 015°23'5 5.4
2016-Dec-02 06:33N 28°13' W 015°24'1514.8
2016-Dec-02 05:33N 28°18' W 015°40'1414.4
2016-Dec-02 04:33N 28°23' W 015°55'17 2.8
2016-Dec-01 22:25N 28°29' W 016°14'2512.2
2016-Dec-01 20:23N 28°44' W 015°51'1315.0
2016-Dec-01 19:32N 28°53' W 015°40'1514.9
2016-Dec-01 18:34N 29°03' W 015°29'1515.1
2016-Dec-01 17:33N 29°14' W 015°16'1514.9
2016-Dec-01 16:33N 29°24' W 015°04'1514.9
2016-Dec-01 15:33N 29°34' W 014°52'1814.9
2016-Dec-01 14:20N 29°47' W 014°36'  
2016-Nov-26 03:33N 29°02' W 015°29'1312.8
2016-Nov-26 02:34N 28°53' W 015°39'1312.7
2016-Nov-26 01:33N 28°44' W 015°50'1312.7
2016-Nov-26 00:33N 28°36' W 016°00'13 3.1
2016-Nov-25 20:16N 28°29' W 016°14'3 1.8
2016-Nov-25 18:24N 28°27' W 016°11'1214.2
2016-Nov-25 17:33N 28°23' W 015°58'1413.9
2016-Nov-25 16:33N 28°19' W 015°43'1313.1
2016-Nov-25 15:33N 28°14' W 015°29'7 6.3
2016-Nov-25 14:31N 28°09' W 015°25'0 0.0
2016-Nov-25 13:31N 28°09' W 015°25'0 0.0
2016-Nov-25 12:31N 28°09' W 015°25'0 0.0
2016-Nov-25 11:31N 28°09' W 015°25'0 0.0
2016-Nov-25 10:31N 28°09' W 015°25'0 0.0
2016-Nov-25 09:31N 28°09' W 015°25'0 0.0
2016-Nov-25 08:31N 28°09' W 015°25'1 0.6
2016-Nov-25 07:33N 28°08' W 015°25'7 7.1
2016-Nov-25 06:33N 28°14' W 015°29'1514.8
2016-Nov-25 05:33N 28°19' W 015°44'1514.5
2016-Nov-25 04:33N 28°24' W 016°00'  

Dump ship's entire track history